createdAt,value
2022-08-26T00:02:59.746Z,11.6894
2022-08-26T00:08:00.787Z,11.47571
2022-08-26T00:13:02.121Z,11.8319
2022-08-26T00:18:03.119Z,11.60138
2022-08-26T00:23:17.845Z,11.97293
2022-08-26T00:38:19.775Z,12.92957
2022-08-26T00:43:20.676Z,12.98743
2022-08-26T00:48:22.028Z,13.3757
2022-08-26T00:53:24.289Z,13.60994
2022-08-26T00:58:31.822Z,13.39402
2022-08-26T01:03:33.487Z,13.38762
2022-08-26T01:08:34.767Z,13.51388
2022-08-26T01:13:36.122Z,13.85094
2022-08-26T01:18:37.465Z,13.87901
2022-08-26T01:23:39.311Z,13.57074
2022-08-26T01:28:40.712Z,13.55594
2022-08-26T01:33:42.412Z,13.82296
2022-08-26T01:38:43.587Z,14.48818
2022-08-26T01:43:45.988Z,14.33917
2022-08-26T01:48:47.071Z,14.30421
2022-08-26T01:53:48.235Z,14.4778
2022-08-26T01:58:49.199Z,14.73705
2022-08-26T02:03:52.598Z,14.69975
2022-08-26T02:08:53.778Z,14.47067
2022-08-26T02:13:56.583Z,14.57494
2022-08-26T02:18:57.790Z,14.6861
2022-08-26T02:23:58.701Z,15.19528
2022-08-26T02:29:00.513Z,15.36151
2022-08-26T02:34:02.365Z,15.04015
2022-08-26T02:39:03.585Z,14.92214
2022-08-26T02:44:04.871Z,15.43764
2022-08-26T02:49:06.318Z,15.62012
2022-08-26T02:54:07.635Z,16.31924
2022-08-26T02:59:08.545Z,16.53169
2022-08-26T03:09:10.563Z,16.72906
2022-08-26T03:14:19.493Z,16.78705
2022-08-26T03:19:20.430Z,17.0284
2022-08-26T03:24:21.351Z,17.44479
2022-08-26T03:29:23.612Z,17.85187
2022-08-26T03:44:28.706Z,18.31326
2022-08-26T03:49:29.644Z,18.48897
2022-08-26T03:54:30.573Z,18.42674
2022-08-26T04:04:32.120Z,18.70969
2022-08-26T04:09:35.418Z,18.82342
2022-08-26T04:14:40.170Z,18.42616
2022-08-26T04:19:42.921Z,18.07742
2022-08-26T04:24:44.621Z,18.35431
2022-08-26T04:30:00.135Z,18.37328
2022-08-26T04:35:01.241Z,18.46617
2022-08-26T04:40:02.956Z,18.48782
2022-08-26T04:45:10.166Z,19.10448
2022-08-26T04:50:13.139Z,19.24417
2022-08-26T04:55:15.463Z,19.45257
2022-08-26T05:00:16.849Z,19.43942
2022-08-26T05:05:18.112Z,19.29392
2022-08-26T05:10:19.332Z,19.17865
2022-08-26T05:15:20.487Z,18.66281
2022-08-26T05:20:26.142Z,18.13234
2022-08-26T05:25:27.478Z,17.76567
2022-08-26T05:30:28.628Z,17.39245
2022-08-26T05:35:34.336Z,17.55326
2022-08-26T05:40:35.472Z,17.35815
2022-08-26T05:45:36.435Z,17.54629
2022-08-26T05:50:37.367Z,17.3451
2022-08-26T06:00:39.801Z,17.55813
2022-08-26T06:05:44.126Z,18.15553
2022-08-26T06:11:21.359Z,17.47154
2022-08-26T06:16:25.428Z,17.5132
2022-08-26T06:21:26.580Z,17.91189
2022-08-26T06:26:27.494Z,18.05606
2022-08-26T06:31:28.418Z,18.11058
2022-08-26T06:36:30.192Z,18.80198
2022-08-26T06:41:33.150Z,19.14291
2022-08-26T06:46:34.635Z,19.24892
2022-08-26T06:51:35.608Z,19.14511
2022-08-26T06:56:37.602Z,19.07634
2022-08-26T07:01:38.889Z,19.24135
2022-08-26T07:06:44.072Z,19.24374
2022-08-26T07:11:46.990Z,19.57672
2022-08-26T07:16:50.282Z,19.28593
2022-08-26T07:27:11.815Z,19.57462
2022-08-26T07:32:12.805Z,19.83725
2022-08-26T07:37:13.756Z,20.43096
2022-08-26T07:47:24.667Z,20.83644
2022-08-26T07:52:27.672Z,20.90399
2022-08-26T07:57:28.648Z,20.85635
2022-08-26T08:02:29.741Z,21.40494
2022-08-26T08:07:44.425Z,21.40966
2022-08-26T08:12:46.103Z,22.09598
2022-08-26T08:17:47.126Z,21.9702
2022-08-26T08:22:53.152Z,21.80748
2022-08-26T08:27:54.811Z,21.86852
2022-08-26T08:32:55.731Z,22.30978
2022-08-26T08:42:57.098Z,23.75131
2022-08-26T08:47:58.004Z,24.59567
2022-08-26T08:58:02.522Z,24.62992
2022-08-26T09:08:04.085Z,25.07169
2022-08-26T09:18:08.361Z,25.96739
2022-08-26T09:23:11.933Z,26.07725
2022-08-26T09:28:12.846Z,25.77731
2022-08-26T09:33:14.517Z,25.78423
2022-08-26T09:38:18.535Z,26.3357
2022-08-26T09:48:20.520Z,27.35857
2022-08-26T09:53:25.179Z,27.70808
2022-08-26T09:58:29.930Z,28.36753
2022-08-26T10:08:34.130Z,30.08537
2022-08-26T10:13:35.132Z,30.48032
2022-08-26T10:18:36.364Z,31.64279
2022-08-26T10:23:37.789Z,32.75319
2022-08-26T10:28:39.660Z,33.63974
2022-08-26T10:33:41.440Z,34.60088
2022-08-26T10:38:44.264Z,35.17979
2022-08-26T10:43:45.299Z,36.32029
2022-08-26T10:48:53.661Z,36.08033
2022-08-26T10:54:16.457Z,36.06587
2022-08-26T10:59:18.496Z,36.74516
2022-08-26T11:04:20.254Z,37.83013
2022-08-26T11:09:25.793Z,38.11457
2022-08-26T11:19:50.575Z,38.05923
2022-08-26T11:24:58.000Z,38.38427
2022-08-26T11:30:09.112Z,38.8588
2022-08-26T11:35:10.997Z,38.88509
2022-08-26T11:40:11.946Z,36.92732
2022-08-26T11:45:12.901Z,36.72083
2022-08-26T11:50:13.982Z,33.3493
2022-08-26T11:55:14.884Z,33.10863
2022-08-26T12:15:18.411Z,36.26788
2022-08-26T12:25:20.239Z,38.62833
2022-08-26T12:30:21.167Z,38.72543
2022-08-26T12:35:22.904Z,37.87638
2022-08-26T12:40:28.611Z,35.62123
2022-08-26T12:45:30.373Z,37.97549
2022-08-26T12:50:31.411Z,37.81315
2022-08-26T12:55:32.574Z,35.92919
2022-08-26T13:00:33.624Z,33.31159
2022-08-26T13:05:34.694Z,33.01701
2022-08-26T13:10:35.633Z,31.06807
2022-08-26T13:15:38.410Z,33.12808
2022-08-26T13:20:40.938Z,35.81558
2022-08-26T13:25:41.904Z,38.74834
2022-08-26T13:30:42.943Z,39.38477
2022-08-26T13:35:44.052Z,39.33752
2022-08-26T13:40:45.157Z,38.59601
2022-08-26T13:45:46.099Z,38.36897
2022-08-26T13:55:47.540Z,38.94191
2022-08-26T14:00:48.832Z,38.98995
2022-08-26T14:05:49.834Z,37.02615
2022-08-26T14:10:50.839Z,32.7327
2022-08-26T14:15:51.886Z,33.32258
2022-08-26T14:20:52.839Z,34.63123
2022-08-26T14:25:53.926Z,31.68731
2022-08-26T14:30:55.021Z,30.54394
2022-08-26T14:35:56.052Z,30.56269
2022-08-26T14:40:57.051Z,32.50756
2022-08-26T14:45:58.056Z,34.15349
2022-08-26T14:51:03.050Z,36.0283
2022-08-26T14:56:04.039Z,37.08516
2022-08-26T15:01:07.662Z,38.07446
2022-08-26T15:06:08.988Z,39.77029
2022-08-26T15:11:09.989Z,39.95741
2022-08-26T15:16:11.023Z,40.46215
2022-08-26T15:21:12.035Z,40.52704
2022-08-26T15:26:13.104Z,40.75618
2022-08-26T15:31:14.160Z,40.24841
2022-08-26T15:36:18.018Z,40.45119
2022-08-26T15:41:18.989Z,41.42277
2022-08-26T15:46:20.974Z,42.52682
2022-08-26T15:51:23.533Z,43.413
2022-08-26T15:56:24.554Z,44.75729
2022-08-26T16:01:27.841Z,45.91297
2022-08-26T16:06:28.971Z,46.63102
2022-08-26T16:11:29.944Z,45.08645
2022-08-26T16:16:31.875Z,44.33527
2022-08-26T16:21:35.311Z,44.91483
2022-08-26T16:31:51.273Z,45.81352
2022-08-26T16:36:52.247Z,45.19664
2022-08-26T16:41:53.133Z,44.24228
2022-08-26T16:46:58.450Z,42.42029
2022-08-26T16:51:59.831Z,42.39812
2022-08-26T16:57:00.851Z,42.50511
2022-08-26T17:02:01.910Z,42.50602
2022-08-26T17:07:04.009Z,42.20276
2022-08-26T17:12:04.960Z,42.28798
2022-08-26T17:17:05.922Z,42.07641
2022-08-26T17:22:06.886Z,41.93593
2022-08-26T17:27:07.835Z,41.85852
2022-08-26T17:32:09.175Z,41.64095
2022-08-26T17:37:10.088Z,42.23427
2022-08-26T17:47:11.590Z,43.37324
2022-08-26T17:52:12.485Z,43.48125
2022-08-26T17:57:13.386Z,43.33518
2022-08-26T18:02:14.966Z,44.11033
2022-08-26T18:07:15.959Z,44.77051
2022-08-26T18:12:16.851Z,44.00758
2022-08-26T18:17:17.856Z,43.22256
2022-08-26T18:22:20.468Z,43.27313
2022-08-26T18:27:21.396Z,44.14033
2022-08-26T18:32:22.336Z,45.04452
2022-08-26T18:37:24.915Z,44.93326
2022-08-26T18:42:35.976Z,45.17483
2022-08-26T18:47:36.918Z,46.20752
2022-08-26T18:52:37.953Z,46.95124
2022-08-26T18:57:38.889Z,46.28524
2022-08-26T19:02:39.991Z,45.83459
2022-08-26T19:07:41.434Z,45.61866
2022-08-26T19:12:44.187Z,45.10514
2022-08-26T19:17:45.116Z,43.73889
2022-08-26T19:22:46.027Z,43.31801
2022-08-26T19:27:46.976Z,42.34378
2022-08-26T19:32:47.950Z,41.37289
2022-08-26T19:37:48.867Z,41.07769
2022-08-26T19:42:49.770Z,40.40195
2022-08-26T19:47:50.762Z,40.21942
2022-08-26T19:52:51.772Z,40.60392
2022-08-26T19:57:53.114Z,40.76501
2022-08-26T20:02:54.681Z,40.0463
2022-08-26T20:07:55.736Z,40.26005
2022-08-26T20:12:56.735Z,39.01128
2022-08-26T20:22:58.164Z,37.38513
2022-08-26T20:27:59.096Z,37.25494
2022-08-26T20:33:00.082Z,37.78743
2022-08-26T20:38:01.081Z,37.30322
2022-08-26T20:43:01.990Z,37.4236
2022-08-26T20:48:02.949Z,37.20481
2022-08-26T20:53:03.947Z,37.19812
2022-08-26T21:03:07.034Z,35.87048
2022-08-26T21:08:08.193Z,36.13614
2022-08-26T21:13:11.925Z,36.09024
2022-08-26T21:18:12.920Z,36.71018
2022-08-26T21:23:13.834Z,36.91641
2022-08-26T21:28:14.835Z,37.15075
2022-08-26T21:38:49.875Z,38.01608
2022-08-26T21:43:50.855Z,38.58982
2022-08-26T21:48:51.818Z,38.6104
2022-08-26T21:53:52.754Z,38.00412
2022-08-26T21:58:53.722Z,36.95473
2022-08-26T22:03:54.670Z,38.09101
2022-08-26T22:08:55.625Z,39.05964
2022-08-26T22:13:56.545Z,39.16525
2022-08-26T22:18:57.458Z,39.82057
2022-08-26T22:23:58.477Z,41.49877
2022-08-26T22:28:59.594Z,42.45458
2022-08-26T22:34:00.536Z,43.89432
2022-08-26T22:39:01.630Z,44.13404
2022-08-26T22:59:04.018Z,46.00896
2022-08-26T23:04:06.420Z,44.85414
2022-08-26T23:09:07.398Z,43.93011
2022-08-26T23:14:08.313Z,43.91308
2022-08-26T23:19:09.289Z,43.95896
2022-08-26T23:24:10.224Z,44.52605
2022-08-26T23:29:11.176Z,44.09942
2022-08-26T23:34:12.162Z,42.73064
2022-08-26T23:39:13.235Z,42.0217
2022-08-26T23:44:14.186Z,42.21227
2022-08-26T23:49:15.223Z,42.03867
2022-08-26T23:54:16.137Z,42.13905
2022-08-26T23:59:19.110Z,42.61432
